Terminal Aerodrome Forecast
Issued by NWS Atlanta, GA

Home | Current Version | Previous Version | Text Only | Print | Product List | Glossary On
Versions: 1 2 3 4 5 6 7 8 9 10 11 12 13 14 15 16 17 18 19
000
FTUS42 KFFC 251139
TAFMCN
TAF
KMCN 251139Z 2512/2612 15004KT P6SM FEW250
     FM251400 16008KT P6SM BKN045
     FM260300 14007KT P6SM BKN035 PROB30 2603/2609 4SM -SHRA BKN025
     FM260900 14005KT P6SM BKN015=

USA.gov is the U.S. government's official web portal to all federal, state and local government web resources and services.